sensor_id;sensor_type;location;lat;lon;timestamp;P1;durP1;ratioP1;P2;durP2;ratioP2
13079;SDS011;6606;49.154;9.280;2022-10-04T00:01:44;6.63;;;4.10;;
13079;SDS011;6606;49.154;9.280;2022-10-04T00:04:14;9.50;;;4.33;;
13079;SDS011;6606;49.154;9.280;2022-10-04T00:06:48;6.53;;;4.00;;
13079;SDS011;6606;49.154;9.280;2022-10-04T00:09:21;5.50;;;3.70;;
13079;SDS011;6606;49.154;9.280;2022-10-04T00:11:51;5.53;;;4.30;;
13079;SDS011;6606;49.154;9.280;2022-10-04T00:14:21;7.30;;;3.37;;
13079;SDS011;6606;49.154;9.280;2022-10-04T00:16:52;5.83;;;3.60;;
13079;SDS011;6606;49.154;9.280;2022-10-04T00:19:22;6.97;;;4.20;;
13079;SDS011;6606;49.154;9.280;2022-10-04T00:31:14;6.23;;;3.47;;
13079;SDS011;6606;49.154;9.280;2022-10-04T00:33:56;4.33;;;3.60;;
13079;SDS011;6606;49.154;9.280;2022-10-04T00:36:50;5.83;;;4.07;;
13079;SDS011;6606;49.154;9.280;2022-10-04T00:39:37;5.67;;;3.50;;
13079;SDS011;6606;49.154;9.280;2022-10-04T00:42:19;5.40;;;3.50;;
13079;SDS011;6606;49.154;9.280;2022-10-04T00:45:02;5.33;;;3.13;;
13079;SDS011;6606;49.154;9.280;2022-10-04T00:47:52;7.87;;;3.97;;
13079;SDS011;6606;49.154;9.280;2022-10-04T00:50:30;8.07;;;4.40;;
13079;SDS011;6606;49.154;9.280;2022-10-04T00:53:01;7.00;;;4.03;;
13079;SDS011;6606;49.154;9.280;2022-10-04T00:55:38;6.27;;;4.20;;
13079;SDS011;6606;49.154;9.280;2022-10-04T00:58:13;5.47;;;4.13;;
13079;SDS011;6606;49.154;9.280;2022-10-04T01:00:46;7.47;;;3.80;;
13079;SDS011;6606;49.154;9.280;2022-10-04T01:03:16;5.60;;;3.73;;
13079;SDS011;6606;49.154;9.280;2022-10-04T01:05:48;6.40;;;4.10;;
13079;SDS011;6606;49.154;9.280;2022-10-04T01:08:21;4.80;;;3.87;;
13079;SDS011;6606;49.154;9.280;2022-10-04T01:10:51;9.57;;;3.90;;
13079;SDS011;6606;49.154;9.280;2022-10-04T01:13:23;7.00;;;3.97;;
13079;SDS011;6606;49.154;9.280;2022-10-04T01:15:55;6.53;;;4.33;;
13079;SDS011;6606;49.154;9.280;2022-10-04T01:18:27;6.87;;;3.23;;
13079;SDS011;6606;49.154;9.280;2022-10-04T01:20:58;5.20;;;3.20;;
13079;SDS011;6606;49.154;9.280;2022-10-04T01:23:35;5.80;;;3.53;;
13079;SDS011;6606;49.154;9.280;2022-10-04T01:26:05;4.80;;;3.63;;
13079;SDS011;6606;49.154;9.280;2022-10-04T01:28:54;6.77;;;4.03;;
13079;SDS011;6606;49.154;9.280;2022-10-04T01:31:23;4.87;;;3.43;;
13079;SDS011;6606;49.154;9.280;2022-10-04T01:33:50;4.40;;;3.33;;
13079;SDS011;6606;49.154;9.280;2022-10-04T01:36:17;5.80;;;3.70;;
13079;SDS011;6606;49.154;9.280;2022-10-04T01:38:45;5.40;;;3.40;;
13079;SDS011;6606;49.154;9.280;2022-10-04T01:41:13;7.00;;;4.27;;
13079;SDS011;6606;49.154;9.280;2022-10-04T01:43:42;6.67;;;3.97;;
13079;SDS011;6606;49.154;9.280;2022-10-04T01:46:15;6.47;;;3.87;;
13079;SDS011;6606;49.154;9.280;2022-10-04T01:48:48;6.53;;;4.10;;
13079;SDS011;6606;49.154;9.280;2022-10-04T01:51:16;4.73;;;3.60;;
13079;SDS011;6606;49.154;9.280;2022-10-04T01:53:48;7.30;;;4.67;;
13079;SDS011;6606;49.154;9.280;2022-10-04T01:56:20;4.73;;;3.63;;
13079;SDS011;6606;49.154;9.280;2022-10-04T01:58:51;6.50;;;4.13;;
13079;SDS011;6606;49.154;9.280;2022-10-04T02:01:25;7.93;;;4.73;;
13079;SDS011;6606;49.154;9.280;2022-10-04T02:03:56;6.30;;;4.47;;
13079;SDS011;6606;49.154;9.280;2022-10-04T02:06:27;11.87;;;5.07;;
13079;SDS011;6606;49.154;9.280;2022-10-04T02:09:05;10.33;;;5.57;;
13079;SDS011;6606;49.154;9.280;2022-10-04T02:11:34;11.40;;;5.60;;
13079;SDS011;6606;49.154;9.280;2022-10-04T02:14:08;9.00;;;5.77;;
13079;SDS011;6606;49.154;9.280;2022-10-04T02:16:39;7.83;;;5.40;;
13079;SDS011;6606;49.154;9.280;2022-10-04T02:19:08;7.43;;;5.23;;
13079;SDS011;6606;49.154;9.280;2022-10-04T02:21:37;7.93;;;6.00;;
13079;SDS011;6606;49.154;9.280;2022-10-04T02:24:06;11.27;;;6.13;;
13079;SDS011;6606;49.154;9.280;2022-10-04T02:26:34;6.80;;;4.73;;
13079;SDS011;6606;49.154;9.280;2022-10-04T02:29:01;7.50;;;4.73;;
13079;SDS011;6606;49.154;9.280;2022-10-04T02:31:28;12.70;;;5.77;;
13079;SDS011;6606;49.154;9.280;2022-10-04T02:34:12;14.03;;;5.57;;
13079;SDS011;6606;49.154;9.280;2022-10-04T02:36:39;10.30;;;5.17;;
13079;SDS011;6606;49.154;9.280;2022-10-04T02:39:09;8.93;;;5.40;;
13079;SDS011;6606;49.154;9.280;2022-10-04T02:41:41;6.80;;;5.13;;
13079;SDS011;6606;49.154;9.280;2022-10-04T02:44:12;12.20;;;6.23;;
13079;SDS011;6606;49.154;9.280;2022-10-04T02:46:45;18.80;;;7.23;;
13079;SDS011;6606;49.154;9.280;2022-10-04T02:49:18;13.13;;;6.20;;
13079;SDS011;6606;49.154;9.280;2022-10-04T02:51:52;10.83;;;6.17;;
13079;SDS011;6606;49.154;9.280;2022-10-04T02:54:27;11.77;;;6.20;;
13079;SDS011;6606;49.154;9.280;2022-10-04T02:56:59;29.53;;;7.97;;
13079;SDS011;6606;49.154;9.280;2022-10-04T02:59:26;28.97;;;9.10;;
13079;SDS011;6606;49.154;9.280;2022-10-04T03:01:56;32.03;;;8.90;;
13079;SDS011;6606;49.154;9.280;2022-10-04T03:04:24;13.63;;;7.47;;
13079;SDS011;6606;49.154;9.280;2022-10-04T03:06:54;8.03;;;5.63;;
13079;SDS011;6606;49.154;9.280;2022-10-04T03:09:22;8.07;;;5.60;;
13079;SDS011;6606;49.154;9.280;2022-10-04T03:11:51;12.93;;;7.07;;
13079;SDS011;6606;49.154;9.280;2022-10-04T03:14:19;7.63;;;5.57;;
13079;SDS011;6606;49.154;9.280;2022-10-04T03:16:48;10.67;;;6.23;;
13079;SDS011;6606;49.154;9.280;2022-10-04T03:19:18;9.27;;;6.27;;
13079;SDS011;6606;49.154;9.280;2022-10-04T03:21:46;10.27;;;5.80;;
13079;SDS011;6606;49.154;9.280;2022-10-04T03:24:19;11.87;;;5.87;;
13079;SDS011;6606;49.154;9.280;2022-10-04T03:26:49;7.10;;;5.80;;
13079;SDS011;6606;49.154;9.280;2022-10-04T03:29:21;11.67;;;6.40;;
13079;SDS011;6606;49.154;9.280;2022-10-04T03:31:49;10.03;;;5.90;;
13079;SDS011;6606;49.154;9.280;2022-10-04T03:34:18;6.93;;;5.00;;
13079;SDS011;6606;49.154;9.280;2022-10-04T03:36:47;10.63;;;5.77;;
13079;SDS011;6606;49.154;9.280;2022-10-04T03:39:17;10.43;;;5.80;;
13079;SDS011;6606;49.154;9.280;2022-10-04T03:41:49;6.20;;;5.23;;
13079;SDS011;6606;49.154;9.280;2022-10-04T03:44:18;6.57;;;4.80;;
13079;SDS011;6606;49.154;9.280;2022-10-04T03:46:46;7.23;;;5.13;;
13079;SDS011;6606;49.154;9.280;2022-10-04T03:49:14;7.17;;;4.93;;
13079;SDS011;6606;49.154;9.280;2022-10-04T03:51:50;6.83;;;5.17;;
13079;SDS011;6606;49.154;9.280;2022-10-04T03:54:18;7.63;;;5.80;;
13079;SDS011;6606;49.154;9.280;2022-10-04T03:56:49;8.67;;;4.50;;
13079;SDS011;6606;49.154;9.280;2022-10-04T03:59:18;7.17;;;4.63;;
13079;SDS011;6606;49.154;9.280;2022-10-04T04:01:46;5.57;;;3.87;;
13079;SDS011;6606;49.154;9.280;2022-10-04T04:04:16;4.93;;;3.90;;
13079;SDS011;6606;49.154;9.280;2022-10-04T04:06:49;7.47;;;5.00;;
13079;SDS011;6606;49.154;9.280;2022-10-04T04:09:22;6.23;;;4.13;;
13079;SDS011;6606;49.154;9.280;2022-10-04T04:11:52;6.87;;;5.40;;
13079;SDS011;6606;49.154;9.280;2022-10-04T04:14:23;6.63;;;4.30;;
13079;SDS011;6606;49.154;9.280;2022-10-04T04:16:51;6.80;;;4.40;;
13079;SDS011;6606;49.154;9.280;2022-10-04T04:19:21;7.73;;;5.20;;
13079;SDS011;6606;49.154;9.280;2022-10-04T04:21:50;7.43;;;5.17;;
13079;SDS011;6606;49.154;9.280;2022-10-04T04:24:22;8.20;;;4.33;;
13079;SDS011;6606;49.154;9.280;2022-10-04T04:26:55;6.93;;;4.50;;
13079;SDS011;6606;49.154;9.280;2022-10-04T04:29:25;6.33;;;4.80;;
13079;SDS011;6606;49.154;9.280;2022-10-04T04:31:58;6.47;;;4.80;;
13079;SDS011;6606;49.154;9.280;2022-10-04T04:34:28;6.83;;;4.80;;
13079;SDS011;6606;49.154;9.280;2022-10-04T04:36:58;6.27;;;5.00;;
13079;SDS011;6606;49.154;9.280;2022-10-04T04:39:25;9.40;;;5.83;;
13079;SDS011;6606;49.154;9.280;2022-10-04T04:42:03;6.80;;;5.10;;
13079;SDS011;6606;49.154;9.280;2022-10-04T04:44:36;8.80;;;5.90;;
13079;SDS011;6606;49.154;9.280;2022-10-04T04:47:04;7.37;;;4.83;;
13079;SDS011;6606;49.154;9.280;2022-10-04T04:49:36;7.27;;;5.10;;
13079;SDS011;6606;49.154;9.280;2022-10-04T04:52:04;9.70;;;5.90;;
13079;SDS011;6606;49.154;9.280;2022-10-04T04:54:32;5.80;;;4.70;;
13079;SDS011;6606;49.154;9.280;2022-10-04T04:56:59;8.90;;;5.83;;
13079;SDS011;6606;49.154;9.280;2022-10-04T04:59:27;11.93;;;8.23;;
13079;SDS011;6606;49.154;9.280;2022-10-04T05:01:54;12.93;;;8.53;;
13079;SDS011;6606;49.154;9.280;2022-10-04T05:04:21;11.97;;;8.47;;
13079;SDS011;6606;49.154;9.280;2022-10-04T05:06:57;7.70;;;5.67;;
13079;SDS011;6606;49.154;9.280;2022-10-04T05:09:28;7.27;;;5.77;;
13079;SDS011;6606;49.154;9.280;2022-10-04T05:11:57;14.53;;;6.80;;
13079;SDS011;6606;49.154;9.280;2022-10-04T05:14:33;9.73;;;6.27;;
13079;SDS011;6606;49.154;9.280;2022-10-04T05:17:03;12.70;;;7.37;;
13079;SDS011;6606;49.154;9.280;2022-10-04T05:19:33;10.20;;;5.93;;
13079;SDS011;6606;49.154;9.280;2022-10-04T05:22:05;17.37;;;6.30;;
13079;SDS011;6606;49.154;9.280;2022-10-04T05:24:36;8.07;;;4.80;;
13079;SDS011;6606;49.154;9.280;2022-10-04T05:27:05;7.17;;;5.73;;
13079;SDS011;6606;49.154;9.280;2022-10-04T05:29:40;7.20;;;5.33;;
13079;SDS011;6606;49.154;9.280;2022-10-04T05:32:21;8.90;;;5.37;;
13079;SDS011;6606;49.154;9.280;2022-10-04T05:34:54;8.33;;;5.37;;
13079;SDS011;6606;49.154;9.280;2022-10-04T05:37:26;9.83;;;6.07;;
13079;SDS011;6606;49.154;9.280;2022-10-04T05:40:05;12.93;;;6.30;;
13079;SDS011;6606;49.154;9.280;2022-10-04T05:42:48;7.20;;;4.50;;
13079;SDS011;6606;49.154;9.280;2022-10-04T05:45:20;7.60;;;5.00;;
13079;SDS011;6606;49.154;9.280;2022-10-04T05:47:49;7.00;;;5.57;;
13079;SDS011;6606;49.154;9.280;2022-10-04T05:50:18;9.20;;;6.00;;
13079;SDS011;6606;49.154;9.280;2022-10-04T05:52:49;8.67;;;6.03;;
13079;SDS011;6606;49.154;9.280;2022-10-04T05:55:20;8.80;;;5.83;;
13079;SDS011;6606;49.154;9.280;2022-10-04T05:58:02;7.40;;;6.17;;
13079;SDS011;6606;49.154;9.280;2022-10-04T06:00:47;10.67;;;6.20;;
13079;SDS011;6606;49.154;9.280;2022-10-04T06:03:41;8.43;;;6.07;;
13079;SDS011;6606;49.154;9.280;2022-10-04T06:06:21;7.23;;;5.40;;
13079;SDS011;6606;49.154;9.280;2022-10-04T06:09:03;8.83;;;5.70;;
13079;SDS011;6606;49.154;9.280;2022-10-04T06:11:41;7.23;;;5.27;;
13079;SDS011;6606;49.154;9.280;2022-10-04T06:17:25;9.87;;;5.30;;
13079;SDS011;6606;49.154;9.280;2022-10-04T06:20:14;7.40;;;5.33;;
13079;SDS011;6606;49.154;9.280;2022-10-04T06:22:59;9.10;;;6.77;;
13079;SDS011;6606;49.154;9.280;2022-10-04T06:25:28;10.20;;;6.40;;
13079;SDS011;6606;49.154;9.280;2022-10-04T06:28:03;9.87;;;7.30;;
13079;SDS011;6606;49.154;9.280;2022-10-04T06:30:44;7.87;;;6.00;;
13079;SDS011;6606;49.154;9.280;2022-10-04T06:33:29;9.27;;;5.33;;
13079;SDS011;6606;49.154;9.280;2022-10-04T06:36:16;5.50;;;4.50;;
13079;SDS011;6606;49.154;9.280;2022-10-04T06:42:08;11.67;;;6.50;;
13079;SDS011;6606;49.154;9.280;2022-10-04T06:44:47;6.07;;;4.23;;
13079;SDS011;6606;49.154;9.280;2022-10-04T06:47:37;6.63;;;5.10;;
13079;SDS011;6606;49.154;9.280;2022-10-04T06:50:21;8.60;;;5.03;;
13079;SDS011;6606;49.154;9.280;2022-10-04T06:52:57;6.67;;;4.57;;
13079;SDS011;6606;49.154;9.280;2022-10-04T06:55:45;5.10;;;4.37;;
13079;SDS011;6606;49.154;9.280;2022-10-04T06:58:30;6.03;;;5.00;;
13079;SDS011;6606;49.154;9.280;2022-10-04T07:01:22;8.30;;;5.10;;
13079;SDS011;6606;49.154;9.280;2022-10-04T07:03:54;7.30;;;5.10;;
13079;SDS011;6606;49.154;9.280;2022-10-04T07:06:30;9.20;;;5.60;;
13079;SDS011;6606;49.154;9.280;2022-10-04T07:09:03;11.00;;;5.93;;
13079;SDS011;6606;49.154;9.280;2022-10-04T07:11:36;6.97;;;5.33;;
13079;SDS011;6606;49.154;9.280;2022-10-04T07:14:09;7.53;;;5.80;;
13079;SDS011;6606;49.154;9.280;2022-10-04T07:16:42;6.80;;;5.13;;
13079;SDS011;6606;49.154;9.280;2022-10-04T07:19:21;9.80;;;4.93;;
13079;SDS011;6606;49.154;9.280;2022-10-04T07:21:57;8.00;;;4.90;;
13079;SDS011;6606;49.154;9.280;2022-10-04T07:24:32;8.47;;;5.07;;
13079;SDS011;6606;49.154;9.280;2022-10-04T07:27:14;8.23;;;5.30;;
13079;SDS011;6606;49.154;9.280;2022-10-04T07:29:45;6.93;;;5.13;;
13079;SDS011;6606;49.154;9.280;2022-10-04T07:32:19;9.43;;;5.20;;
13079;SDS011;6606;49.154;9.280;2022-10-04T07:34:50;11.17;;;5.10;;
13079;SDS011;6606;49.154;9.280;2022-10-04T07:37:21;9.30;;;4.77;;
13079;SDS011;6606;49.154;9.280;2022-10-04T07:39:52;8.23;;;4.40;;
13079;SDS011;6606;49.154;9.280;2022-10-04T07:42:26;7.50;;;5.00;;
13079;SDS011;6606;49.154;9.280;2022-10-04T07:44:59;7.00;;;4.30;;
13079;SDS011;6606;49.154;9.280;2022-10-04T07:47:35;9.97;;;4.53;;
13079;SDS011;6606;49.154;9.280;2022-10-04T07:50:12;6.77;;;4.63;;
13079;SDS011;6606;49.154;9.280;2022-10-04T07:52:50;5.97;;;3.43;;
13079;SDS011;6606;49.154;9.280;2022-10-04T07:55:24;6.20;;;3.80;;
13079;SDS011;6606;49.154;9.280;2022-10-04T07:58:01;4.63;;;3.93;;
13079;SDS011;6606;49.154;9.280;2022-10-04T08:00:49;7.10;;;3.50;;
13079;SDS011;6606;49.154;9.280;2022-10-04T08:03:26;6.67;;;3.83;;
13079;SDS011;6606;49.154;9.280;2022-10-04T08:06:08;5.30;;;4.00;;
13079;SDS011;6606;49.154;9.280;2022-10-04T08:11:52;6.97;;;4.00;;
13079;SDS011;6606;49.154;9.280;2022-10-04T08:14:28;7.23;;;3.90;;
13079;SDS011;6606;49.154;9.280;2022-10-04T08:17:06;5.93;;;4.00;;
13079;SDS011;6606;49.154;9.280;2022-10-04T08:19:43;8.67;;;3.50;;
13079;SDS011;6606;49.154;9.280;2022-10-04T08:22:26;6.00;;;3.60;;
13079;SDS011;6606;49.154;9.280;2022-10-04T08:25:05;6.50;;;4.30;;
13079;SDS011;6606;49.154;9.280;2022-10-04T08:27:49;4.97;;;3.47;;
13079;SDS011;6606;49.154;9.280;2022-10-04T08:30:41;6.67;;;3.73;;
13079;SDS011;6606;49.154;9.280;2022-10-04T08:33:23;4.30;;;3.30;;
13079;SDS011;6606;49.154;9.280;2022-10-04T08:36:07;4.53;;;3.30;;
13079;SDS011;6606;49.154;9.280;2022-10-04T08:38:43;3.90;;;2.67;;
13079;SDS011;6606;49.154;9.280;2022-10-04T08:44:31;4.90;;;3.70;;
13079;SDS011;6606;49.154;9.280;2022-10-04T08:56:54;5.30;;;3.60;;
13079;SDS011;6606;49.154;9.280;2022-10-04T09:02:46;4.67;;;3.13;;
13079;SDS011;6606;49.154;9.280;2022-10-04T09:05:52;7.50;;;3.13;;
13079;SDS011;6606;49.154;9.280;2022-10-04T09:08:37;10.10;;;3.30;;
13079;SDS011;6606;49.154;9.280;2022-10-04T09:11:36;5.97;;;3.37;;
13079;SDS011;6606;49.154;9.280;2022-10-04T09:14:33;3.70;;;3.00;;
13079;SDS011;6606;49.154;9.280;2022-10-04T09:17:20;4.33;;;3.17;;
13079;SDS011;6606;49.154;9.280;2022-10-04T09:19:54;5.47;;;3.30;;
13079;SDS011;6606;49.154;9.280;2022-10-04T09:22:32;6.80;;;3.33;;
13079;SDS011;6606;49.154;9.280;2022-10-04T09:25:17;6.30;;;2.93;;
13079;SDS011;6606;49.154;9.280;2022-10-04T09:28:05;7.03;;;3.30;;
13079;SDS011;6606;49.154;9.280;2022-10-04T09:34:03;4.93;;;2.80;;
13079;SDS011;6606;49.154;9.280;2022-10-04T09:36:52;7.37;;;2.70;;
13079;SDS011;6606;49.154;9.280;2022-10-04T09:39:31;3.87;;;2.60;;
13079;SDS011;6606;49.154;9.280;2022-10-04T09:42:40;6.27;;;2.90;;
13079;SDS011;6606;49.154;9.280;2022-10-04T09:45:27;3.80;;;2.47;;
13079;SDS011;6606;49.154;9.280;2022-10-04T09:48:06;5.28;;;2.83;;
13079;SDS011;6606;49.154;9.280;2022-10-04T09:53:44;5.17;;;2.80;;
13079;SDS011;6606;49.154;9.280;2022-10-04T09:56:36;6.03;;;2.70;;
13079;SDS011;6606;49.154;9.280;2022-10-04T09:59:25;5.20;;;2.60;;
13079;SDS011;6606;49.154;9.280;2022-10-04T10:02:46;5.80;;;2.67;;
13079;SDS011;6606;49.154;9.280;2022-10-04T10:05:45;5.07;;;2.40;;
13079;SDS011;6606;49.154;9.280;2022-10-04T10:08:29;4.30;;;2.60;;
13079;SDS011;6606;49.154;9.280;2022-10-04T10:11:02;5.35;;;2.70;;
13079;SDS011;6606;49.154;9.280;2022-10-04T10:16:57;6.57;;;2.70;;
13079;SDS011;6606;49.154;9.280;2022-10-04T10:19:41;3.60;;;2.22;;
13079;SDS011;6606;49.154;9.280;2022-10-04T10:22:29;6.15;;;2.47;;
13079;SDS011;6606;49.154;9.280;2022-10-04T10:25:23;5.18;;;2.58;;
13079;SDS011;6606;49.154;9.280;2022-10-04T10:28:03;6.53;;;2.55;;
13079;SDS011;6606;49.154;9.280;2022-10-04T10:30:47;5.93;;;2.22;;
13079;SDS011;6606;49.154;9.280;2022-10-04T10:33:36;4.60;;;2.20;;
13079;SDS011;6606;49.154;9.280;2022-10-04T10:36:32;7.22;;;2.47;;
13079;SDS011;6606;49.154;9.280;2022-10-04T10:39:22;5.07;;;2.22;;
13079;SDS011;6606;49.154;9.280;2022-10-04T10:42:17;7.32;;;2.40;;
13079;SDS011;6606;49.154;9.280;2022-10-04T10:45:00;4.68;;;2.42;;
13079;SDS011;6606;49.154;9.280;2022-10-04T10:47:43;6.50;;;2.25;;
13079;SDS011;6606;49.154;9.280;2022-10-04T10:53:43;3.60;;;2.10;;
13079;SDS011;6606;49.154;9.280;2022-10-04T10:56:29;4.53;;;2.00;;
13079;SDS011;6606;49.154;9.280;2022-10-04T10:59:10;4.82;;;2.30;;
13079;SDS011;6606;49.154;9.280;2022-10-04T11:05:28;5.13;;;2.00;;
13079;SDS011;6606;49.154;9.280;2022-10-04T11:08:44;4.63;;;2.10;;
13079;SDS011;6606;49.154;9.280;2022-10-04T11:14:43;3.90;;;2.00;;
13079;SDS011;6606;49.154;9.280;2022-10-04T11:17:51;3.70;;;1.92;;
13079;SDS011;6606;49.154;9.280;2022-10-04T11:23:46;3.28;;;1.58;;
13079;SDS011;6606;49.154;9.280;2022-10-04T11:26:48;5.10;;;1.88;;
13079;SDS011;6606;49.154;9.280;2022-10-04T11:29:26;3.80;;;1.92;;
13079;SDS011;6606;49.154;9.280;2022-10-04T11:35:37;4.72;;;1.90;;
13079;SDS011;6606;49.154;9.280;2022-10-04T11:38:20;5.88;;;1.88;;
13079;SDS011;6606;49.154;9.280;2022-10-04T11:41:13;3.60;;;1.80;;
13079;SDS011;6606;49.154;9.280;2022-10-04T11:43:54;2.85;;;1.75;;
13079;SDS011;6606;49.154;9.280;2022-10-04T11:46:41;5.63;;;2.00;;
13079;SDS011;6606;49.154;9.280;2022-10-04T11:49:19;3.72;;;2.22;;
13079;SDS011;6606;49.154;9.280;2022-10-04T11:51:57;7.07;;;2.65;;
13079;SDS011;6606;49.154;9.280;2022-10-04T11:54:49;3.92;;;1.95;;
13079;SDS011;6606;49.154;9.280;2022-10-04T11:57:52;2.65;;;1.65;;
13079;SDS011;6606;49.154;9.280;2022-10-04T12:00:22;5.20;;;2.00;;
13079;SDS011;6606;49.154;9.280;2022-10-04T12:02:55;6.05;;;1.90;;
13079;SDS011;6606;49.154;9.280;2022-10-04T12:08:52;4.05;;;1.80;;
13079;SDS011;6606;49.154;9.280;2022-10-04T12:11:42;3.65;;;1.85;;
13079;SDS011;6606;49.154;9.280;2022-10-04T12:14:46;3.20;;;1.88;;
13079;SDS011;6606;49.154;9.280;2022-10-04T12:17:37;4.90;;;1.75;;
13079;SDS011;6606;49.154;9.280;2022-10-04T12:20:26;2.58;;;1.63;;
13079;SDS011;6606;49.154;9.280;2022-10-04T12:29:36;6.30;;;2.10;;
13079;SDS011;6606;49.154;9.280;2022-10-04T12:32:24;2.72;;;1.83;;
13079;SDS011;6606;49.154;9.280;2022-10-04T12:34:58;3.78;;;1.70;;
13079;SDS011;6606;49.154;9.280;2022-10-04T12:37:38;3.30;;;1.90;;
13079;SDS011;6606;49.154;9.280;2022-10-04T12:40:28;5.47;;;1.85;;
13079;SDS011;6606;49.154;9.280;2022-10-04T12:43:01;3.92;;;2.00;;
13079;SDS011;6606;49.154;9.280;2022-10-04T12:45:40;3.13;;;1.88;;
13079;SDS011;6606;49.154;9.280;2022-10-04T12:48:23;4.63;;;1.95;;
13079;SDS011;6606;49.154;9.280;2022-10-04T12:51:00;3.60;;;1.58;;
13079;SDS011;6606;49.154;9.280;2022-10-04T12:53:36;5.13;;;2.17;;
13079;SDS011;6606;49.154;9.280;2022-10-04T12:56:13;2.67;;;1.67;;
13079;SDS011;6606;49.154;9.280;2022-10-04T13:01:40;3.80;;;1.70;;
13079;SDS011;6606;49.154;9.280;2022-10-04T13:04:16;4.22;;;1.90;;
13079;SDS011;6606;49.154;9.280;2022-10-04T13:06:59;4.15;;;1.83;;
13079;SDS011;6606;49.154;9.280;2022-10-04T13:09:42;3.85;;;1.80;;
13079;SDS011;6606;49.154;9.280;2022-10-04T13:12:16;3.85;;;1.80;;
13079;SDS011;6606;49.154;9.280;2022-10-04T13:15:16;4.93;;;1.85;;
13079;SDS011;6606;49.154;9.280;2022-10-04T13:17:52;5.72;;;2.10;;
13079;SDS011;6606;49.154;9.280;2022-10-04T13:20:43;3.88;;;1.73;;
13079;SDS011;6606;49.154;9.280;2022-10-04T13:23:25;2.65;;;1.77;;
13079;SDS011;6606;49.154;9.280;2022-10-04T13:26:27;4.13;;;1.75;;
13079;SDS011;6606;49.154;9.280;2022-10-04T13:29:02;3.78;;;1.73;;
13079;SDS011;6606;49.154;9.280;2022-10-04T13:31:37;5.03;;;1.90;;
13079;SDS011;6606;49.154;9.280;2022-10-04T13:34:15;4.28;;;1.70;;
13079;SDS011;6606;49.154;9.280;2022-10-04T13:36:59;3.45;;;1.60;;
13079;SDS011;6606;49.154;9.280;2022-10-04T13:42:40;5.65;;;1.80;;
13079;SDS011;6606;49.154;9.280;2022-10-04T13:45:22;3.70;;;1.85;;
13079;SDS011;6606;49.154;9.280;2022-10-04T13:48:03;2.92;;;1.70;;
13079;SDS011;6606;49.154;9.280;2022-10-04T13:50:46;4.30;;;1.63;;
13079;SDS011;6606;49.154;9.280;2022-10-04T13:53:29;3.40;;;1.45;;
13079;SDS011;6606;49.154;9.280;2022-10-04T13:56:36;3.10;;;1.48;;
13079;SDS011;6606;49.154;9.280;2022-10-04T13:59:17;3.35;;;1.83;;
13079;SDS011;6606;49.154;9.280;2022-10-04T14:02:10;3.40;;;1.75;;
13079;SDS011;6606;49.154;9.280;2022-10-04T14:05:10;3.33;;;1.58;;
13079;SDS011;6606;49.154;9.280;2022-10-04T14:11:19;5.47;;;1.75;;
13079;SDS011;6606;49.154;9.280;2022-10-04T14:29:53;3.75;;;1.80;;
13079;SDS011;6606;49.154;9.280;2022-10-04T14:35:32;2.88;;;1.35;;
13079;SDS011;6606;49.154;9.280;2022-10-04T14:38:11;3.05;;;1.92;;
13079;SDS011;6606;49.154;9.280;2022-10-04T14:41:22;2.85;;;1.40;;
13079;SDS011;6606;49.154;9.280;2022-10-04T14:47:25;3.75;;;1.65;;
13079;SDS011;6606;49.154;9.280;2022-10-04T14:50:20;3.20;;;1.30;;
13079;SDS011;6606;49.154;9.280;2022-10-04T14:52:56;3.70;;;1.40;;
13079;SDS011;6606;49.154;9.280;2022-10-04T14:55:43;2.83;;;1.60;;
13079;SDS011;6606;49.154;9.280;2022-10-04T14:58:36;5.13;;;1.35;;
13079;SDS011;6606;49.154;9.280;2022-10-04T15:01:18;4.13;;;1.83;;
13079;SDS011;6606;49.154;9.280;2022-10-04T15:03:51;3.65;;;1.55;;
13079;SDS011;6606;49.154;9.280;2022-10-04T15:06:41;2.75;;;1.40;;
13079;SDS011;6606;49.154;9.280;2022-10-04T15:12:37;2.28;;;1.40;;
13079;SDS011;6606;49.154;9.280;2022-10-04T15:18:10;4.00;;;2.00;;
13079;SDS011;6606;49.154;9.280;2022-10-04T15:20:53;6.93;;;2.40;;
13079;SDS011;6606;49.154;9.280;2022-10-04T15:23:32;4.38;;;2.00;;
13079;SDS011;6606;49.154;9.280;2022-10-04T15:26:04;11.90;;;3.95;;
13079;SDS011;6606;49.154;9.280;2022-10-04T15:29:04;3.40;;;1.73;;
13079;SDS011;6606;49.154;9.280;2022-10-04T15:31:49;9.77;;;3.53;;
13079;SDS011;6606;49.154;9.280;2022-10-04T15:34:29;4.32;;;2.08;;
13079;SDS011;6606;49.154;9.280;2022-10-04T15:37:03;3.65;;;1.77;;
13079;SDS011;6606;49.154;9.280;2022-10-04T15:39:46;3.83;;;1.73;;
13079;SDS011;6606;49.154;9.280;2022-10-04T15:42:28;2.78;;;1.70;;
13079;SDS011;6606;49.154;9.280;2022-10-04T15:45:02;3.75;;;1.60;;
13079;SDS011;6606;49.154;9.280;2022-10-04T15:48:04;4.30;;;1.88;;
13079;SDS011;6606;49.154;9.280;2022-10-04T15:50:53;2.90;;;1.88;;
13079;SDS011;6606;49.154;9.280;2022-10-04T15:53:39;3.40;;;1.98;;
13079;SDS011;6606;49.154;9.280;2022-10-04T15:56:17;2.75;;;2.10;;
13079;SDS011;6606;49.154;9.280;2022-10-04T16:02:20;6.82;;;3.88;;
13079;SDS011;6606;49.154;9.280;2022-10-04T16:05:06;6.13;;;4.55;;
13079;SDS011;6606;49.154;9.280;2022-10-04T16:07:54;10.00;;;6.30;;
13079;SDS011;6606;49.154;9.280;2022-10-04T16:10:31;7.30;;;6.22;;
13079;SDS011;6606;49.154;9.280;2022-10-04T16:13:25;7.03;;;5.10;;
13079;SDS011;6606;49.154;9.280;2022-10-04T16:19:12;5.75;;;3.75;;
13079;SDS011;6606;49.154;9.280;2022-10-04T16:21:51;6.03;;;3.63;;
13079;SDS011;6606;49.154;9.280;2022-10-04T16:24:27;4.95;;;2.80;;
13079;SDS011;6606;49.154;9.280;2022-10-04T16:27:14;5.13;;;2.63;;
13079;SDS011;6606;49.154;9.280;2022-10-04T16:29:51;3.83;;;2.58;;
13079;SDS011;6606;49.154;9.280;2022-10-04T16:32:27;5.70;;;2.40;;
13079;SDS011;6606;49.154;9.280;2022-10-04T16:34:57;3.83;;;2.33;;
13079;SDS011;6606;49.154;9.280;2022-10-04T16:37:30;5.40;;;2.30;;
13079;SDS011;6606;49.154;9.280;2022-10-04T16:40:02;3.67;;;2.20;;
13079;SDS011;6606;49.154;9.280;2022-10-04T16:42:51;2.63;;;1.88;;
13079;SDS011;6606;49.154;9.280;2022-10-04T16:45:31;6.55;;;2.22;;
13079;SDS011;6606;49.154;9.280;2022-10-04T16:48:04;3.80;;;2.40;;
13079;SDS011;6606;49.154;9.280;2022-10-04T16:50:51;5.78;;;2.97;;
13079;SDS011;6606;49.154;9.280;2022-10-04T16:53:42;5.83;;;2.90;;
13079;SDS011;6606;49.154;9.280;2022-10-04T16:56:16;6.80;;;3.30;;
13079;SDS011;6606;49.154;9.280;2022-10-04T16:58:50;5.33;;;2.80;;
13079;SDS011;6606;49.154;9.280;2022-10-04T17:01:38;5.07;;;3.43;;
13079;SDS011;6606;49.154;9.280;2022-10-04T17:04:24;4.93;;;3.37;;
13079;SDS011;6606;49.154;9.280;2022-10-04T17:07:07;5.03;;;3.13;;
13079;SDS011;6606;49.154;9.280;2022-10-04T17:09:47;4.63;;;3.20;;
13079;SDS011;6606;49.154;9.280;2022-10-04T17:12:18;5.13;;;3.30;;
13079;SDS011;6606;49.154;9.280;2022-10-04T17:14:56;5.73;;;3.57;;
13079;SDS011;6606;49.154;9.280;2022-10-04T17:17:43;5.17;;;3.03;;
13079;SDS011;6606;49.154;9.280;2022-10-04T17:20:13;5.37;;;3.20;;
13079;SDS011;6606;49.154;9.280;2022-10-04T17:22:54;6.40;;;3.33;;
13079;SDS011;6606;49.154;9.280;2022-10-04T17:25:32;7.27;;;4.00;;
13079;SDS011;6606;49.154;9.280;2022-10-04T17:28:11;6.77;;;3.70;;
13079;SDS011;6606;49.154;9.280;2022-10-04T17:30:47;7.30;;;4.30;;
13079;SDS011;6606;49.154;9.280;2022-10-04T17:33:22;8.00;;;5.80;;
13079;SDS011;6606;49.154;9.280;2022-10-04T17:36:19;14.10;;;6.57;;
13079;SDS011;6606;49.154;9.280;2022-10-04T17:39:06;10.17;;;6.90;;
13079;SDS011;6606;49.154;9.280;2022-10-04T17:41:52;14.57;;;8.00;;
13079;SDS011;6606;49.154;9.280;2022-10-04T17:44:42;10.83;;;6.57;;
13079;SDS011;6606;49.154;9.280;2022-10-04T17:47:21;8.63;;;6.40;;
13079;SDS011;6606;49.154;9.280;2022-10-04T17:50:13;10.57;;;5.53;;
13079;SDS011;6606;49.154;9.280;2022-10-04T17:53:08;7.47;;;5.30;;
13079;SDS011;6606;49.154;9.280;2022-10-04T17:55:58;6.57;;;4.90;;
13079;SDS011;6606;49.154;9.280;2022-10-04T17:58:29;8.63;;;5.90;;
13079;SDS011;6606;49.154;9.280;2022-10-04T18:01:06;8.20;;;6.07;;
13079;SDS011;6606;49.154;9.280;2022-10-04T18:03:41;8.10;;;5.90;;
13079;SDS011;6606;49.154;9.280;2022-10-04T18:06:13;9.30;;;6.63;;